createdAt,value
2022-09-15T00:04:03.993Z,-147.53
2022-09-15T00:09:06.959Z,-147.53
2022-09-15T00:14:09.090Z,-147.53
2022-09-15T00:19:11.653Z,-147.53
2022-09-15T00:24:14.359Z,-147.53
2022-09-15T00:29:16.202Z,-147.53
2022-09-15T00:34:17.675Z,-147.53
2022-09-15T00:39:19.196Z,-147.53
2022-09-15T00:44:23.378Z,-147.53
2022-09-15T00:49:30.332Z,-147.53
2022-09-15T00:54:39.670Z,-147.53
2022-09-15T00:59:42.594Z,-147.53
2022-09-15T01:04:45.355Z,-147.53
2022-09-15T01:09:57.730Z,-147.53
2022-09-15T01:15:02.708Z,-147.53
2022-09-15T01:20:47.081Z,-147.53
2022-09-15T01:25:49.283Z,-147.53
2022-09-15T01:31:14.244Z,-147.53
2022-09-15T01:36:35.965Z,-147.53
2022-09-15T01:41:42.940Z,-147.53
2022-09-15T01:46:48.678Z,-147.53
2022-09-15T01:51:53.543Z,-147.53
2022-09-15T01:56:57.308Z,-147.53
2022-09-15T02:02:12.737Z,-147.53
2022-09-15T02:07:20.508Z,-147.53
2022-09-15T02:12:42.260Z,-147.53
2022-09-15T02:17:54.209Z,-147.53
2022-09-15T02:23:01.486Z,-147.53
2022-09-15T02:28:07.836Z,-147.53
2022-09-15T02:33:19.697Z,-147.53
2022-09-15T02:38:21.646Z,-147.53
2022-09-15T02:43:23.840Z,-147.53
2022-09-15T02:48:25.323Z,-147.53
2022-09-15T02:53:28.163Z,-147.53
2022-09-15T02:58:31.217Z,-147.53
2022-09-15T03:03:34.961Z,-147.53
2022-09-15T03:08:37.028Z,-147.53
2022-09-15T03:13:39.449Z,-147.53
2022-09-15T03:18:41.551Z,-147.53
2022-09-15T03:23:43.083Z,-147.53
2022-09-15T03:28:44.938Z,-147.53
2022-09-15T03:33:49.169Z,-147.53
2022-09-15T03:38:51.923Z,-147.53
2022-09-15T03:43:54.103Z,-147.53
2022-09-15T03:48:55.994Z,-147.53
2022-09-15T03:53:57.469Z,-147.53
2022-09-15T03:59:01.986Z,-147.53
2022-09-15T04:04:03.469Z,-147.53
2022-09-15T04:09:05.056Z,-147.53
2022-09-15T04:14:06.823Z,-147.53
2022-09-15T04:19:09.134Z,-147.53
2022-09-15T04:24:10.699Z,-147.53
2022-09-15T04:29:15.704Z,-147.53
2022-09-15T04:34:18.212Z,-147.53
2022-09-15T04:39:20.694Z,-147.53
2022-09-15T04:44:22.395Z,-147.53
2022-09-15T04:49:24.747Z,-147.53
2022-09-15T04:54:27.162Z,-147.53
2022-09-15T04:59:30.122Z,-147.53
2022-09-15T05:04:32.595Z,-147.53
2022-09-15T05:09:34.624Z,-147.53
2022-09-15T05:14:36.860Z,-147.53
2022-09-15T05:19:38.730Z,-147.53
2022-09-15T05:24:40.447Z,-147.53
2022-09-15T05:29:43.379Z,-147.53
2022-09-15T05:34:44.932Z,-147.53
2022-09-15T05:39:46.446Z,-147.53
2022-09-15T05:44:47.956Z,-147.53
2022-09-15T05:49:49.719Z,-147.53
2022-09-15T05:54:54.603Z,-147.53
2022-09-15T05:59:58.947Z,-147.53
2022-09-15T06:05:00.776Z,-147.53
2022-09-15T06:10:03.975Z,-147.53
2022-09-15T06:15:07.297Z,-147.53
2022-09-15T06:20:09.947Z,-147.53
2022-09-15T06:25:13.568Z,-147.53
2022-09-15T06:30:15.462Z,-147.53
2022-09-15T06:35:17.370Z,-147.53
2022-09-15T06:40:19.701Z,-147.53
2022-09-15T06:45:21.995Z,-147.53
2022-09-15T06:50:23.769Z,-147.53
2022-09-15T06:55:25.356Z,-147.53
2022-09-15T07:00:28.468Z,-147.53
2022-09-15T07:05:29.977Z,-147.53
2022-09-15T07:10:32.176Z,-147.53
2022-09-15T07:15:34.004Z,-147.53
2022-09-15T07:20:40.630Z,-147.53
2022-09-15T07:25:44.859Z,-147.53
2022-09-15T07:30:51.311Z,-147.53
2022-09-15T07:35:53.286Z,-147.53
2022-09-15T07:40:54.995Z,-147.53
2022-09-15T07:45:58.104Z,-147.53
2022-09-15T07:51:00.053Z,-147.53
2022-09-15T07:56:01.705Z,-147.53
2022-09-15T08:01:07.325Z,-147.53
2022-09-15T08:06:10.657Z,-147.53
2022-09-15T08:11:19.208Z,-147.53
2022-09-15T08:16:22.966Z,-147.53
2022-09-15T08:21:24.792Z,-147.53
2022-09-15T08:26:28.642Z,-147.53
2022-09-15T08:31:30.246Z,-147.53
2022-09-15T08:36:33.149Z,-147.53
2022-09-15T08:41:53.700Z,-147.53
2022-09-15T08:47:19.584Z,-147.53
2022-09-15T08:52:46.723Z,-147.53
2022-09-15T08:57:48.830Z,-147.53
2022-09-15T09:03:13.130Z,-147.53
2022-09-15T09:08:38.042Z,-147.53
2022-09-15T09:13:50.472Z,-147.53
2022-09-15T09:19:22.850Z,-147.53
2022-09-15T09:24:32.897Z,-147.53
2022-09-15T09:29:39.934Z,-147.53
2022-09-15T09:34:54.331Z,-147.53
2022-09-15T09:39:56.204Z,-147.53
2022-09-15T09:44:58.050Z,-147.53
2022-09-15T09:49:59.854Z,-147.53
2022-09-15T09:55:03.042Z,-147.53
2022-09-15T10:00:04.919Z,-147.53
2022-09-15T10:05:08.438Z,-147.53
2022-09-15T10:10:21.812Z,-147.53
2022-09-15T10:15:25.962Z,-147.53
2022-09-15T10:20:32.666Z,-147.53
2022-09-15T10:25:58.205Z,-147.53
2022-09-15T10:31:05.261Z,-147.53
2022-09-15T10:36:11.827Z,-147.53
2022-09-15T10:41:34.952Z,-147.53
2022-09-15T10:46:56.455Z,-147.53
2022-09-15T10:52:32.387Z,-147.53
2022-09-15T10:57:52.004Z,-147.53
2022-09-15T11:03:22.262Z,-147.53
2022-09-15T11:08:46.338Z,-147.53
2022-09-15T11:13:56.957Z,-147.53
2022-09-15T11:18:58.682Z,-147.53
2022-09-15T11:24:17.261Z,-147.53
2022-09-15T11:29:42.324Z,-147.53
2022-09-15T11:34:54.639Z,-147.53
2022-09-15T11:40:13.652Z,-147.53
2022-09-15T11:45:45.379Z,-147.53
2022-09-15T11:50:51.581Z,-147.53
2022-09-15T11:56:30.731Z,-147.53
2022-09-15T12:02:09.580Z,-147.53
2022-09-15T12:07:20.045Z,-147.53
2022-09-15T12:12:22.715Z,-147.53
2022-09-15T12:17:40.167Z,-147.53
2022-09-15T12:22:43.508Z,-147.53
2022-09-15T12:33:54.695Z,-147.53
2022-09-15T12:38:56.558Z,-147.53
2022-09-15T12:44:15.057Z,-147.53
2022-09-15T12:49:18.955Z,-147.53
2022-09-15T12:54:28.551Z,-147.53
2022-09-15T12:59:30.092Z,-147.53
2022-09-15T13:04:54.663Z,-147.53
2022-09-15T13:10:08.220Z,-147.53
2022-09-15T13:15:16.189Z,-147.53
2022-09-15T13:20:25.871Z,-147.53
2022-09-15T13:25:30.197Z,-147.53
2022-09-15T13:31:05.397Z,-147.53
2022-09-15T13:36:15.967Z,-147.53
2022-09-15T13:41:36.275Z,-147.53
2022-09-15T13:47:16.939Z,-147.53
2022-09-15T13:52:18.255Z,-147.53
2022-09-15T13:58:54.466Z,-147.53
2022-09-15T14:02:45.606Z,-147.53
2022-09-15T14:08:15.241Z,-147.53
2022-09-15T14:13:19.970Z,-147.53
2022-09-15T14:18:21.476Z,-147.53
2022-09-15T14:23:22.920Z,-147.53
2022-09-15T14:28:34.606Z,-147.53
2022-09-15T14:33:39.782Z,-147.53
2022-09-15T14:38:41.263Z,-147.53
2022-09-15T14:43:42.886Z,-147.53
2022-09-15T14:48:44.587Z,-147.53
2022-09-15T14:53:50.970Z,-147.53
2022-09-15T14:59:04.225Z,-147.53
2022-09-15T15:04:11.576Z,-147.53
2022-09-15T15:09:21.516Z,-147.53
2022-09-15T15:19:38.661Z,-147.53
2022-09-15T15:24:43.397Z,-147.53
2022-09-15T15:29:48.016Z,-147.53
2022-09-15T15:35:01.166Z,-147.53
2022-09-15T15:40:07.226Z,-147.53
2022-09-15T15:45:09.228Z,-147.53
2022-09-15T15:50:20.746Z,-147.53
2022-09-15T15:55:24.958Z,-147.53
2022-09-15T16:00:32.632Z,-147.53
2022-09-15T16:05:34.501Z,-147.53
2022-09-15T16:10:43.745Z,-147.53
2022-09-15T16:15:46.021Z,-147.53
2022-09-15T16:20:47.670Z,-147.53
2022-09-15T16:26:01.542Z,-147.53
2022-09-15T16:31:03.092Z,-147.53
2022-09-15T16:36:08.075Z,-147.53
2022-09-15T16:41:15.376Z,-147.53
2022-09-15T16:46:17.246Z,-147.53
2022-09-15T16:51:29.507Z,-147.53
2022-09-15T16:56:32.273Z,-147.53
2022-09-15T17:01:33.795Z,-147.53
2022-09-15T17:06:35.330Z,-147.53
2022-09-15T17:11:36.849Z,-147.53
2022-09-15T17:16:38.655Z,-147.53
2022-09-15T17:21:47.147Z,13.46
2022-09-15T17:26:48.647Z,13.31
2022-09-15T17:31:50.140Z,13.22
2022-09-15T17:36:51.761Z,13.00
2022-09-15T17:41:53.344Z,12.90
2022-09-15T17:46:55.371Z,12.75
2022-09-15T17:51:56.890Z,12.61
2022-09-15T17:56:58.432Z,12.51
2022-09-15T18:01:59.936Z,12.47
2022-09-15T18:07:01.418Z,12.37
2022-09-15T18:12:03.332Z,12.31
2022-09-15T18:17:04.895Z,12.32
2022-09-15T18:22:06.619Z,12.33
2022-09-15T18:27:08.178Z,12.34
2022-09-15T18:32:09.700Z,12.29
2022-09-15T18:37:11.168Z,12.31
2022-09-15T18:42:12.827Z,12.36
2022-09-15T18:47:14.387Z,12.34
2022-09-15T18:52:15.819Z,12.28
2022-09-15T18:57:17.434Z,12.27
2022-09-15T19:02:19.023Z,12.19
2022-09-15T19:07:22.308Z,12.15
2022-09-15T19:12:26.579Z,12.23
2022-09-15T19:17:28.065Z,12.24
2022-09-15T19:22:29.619Z,12.23
2022-09-15T19:27:31.264Z,12.25
2022-09-15T19:32:33.797Z,12.19
2022-09-15T19:37:37.311Z,12.14
2022-09-15T19:42:40.277Z,12.09
2022-09-15T19:47:41.851Z,12.01
2022-09-15T19:52:43.576Z,11.92
2022-09-15T19:57:46.333Z,11.83
2022-09-15T20:02:48.522Z,11.89
2022-09-15T20:07:50.379Z,11.83
2022-09-15T20:12:52.069Z,11.79
2022-09-15T20:17:53.585Z,11.74
2022-09-15T20:22:55.231Z,11.60
2022-09-15T20:27:56.734Z,11.48
2022-09-15T20:32:58.243Z,11.41
2022-09-15T20:37:59.800Z,11.21
2022-09-15T20:43:01.243Z,11.13
2022-09-15T20:48:03.321Z,11.07
2022-09-15T20:53:04.847Z,11.02
2022-09-15T20:58:07.903Z,10.95
2022-09-15T21:03:09.440Z,10.89
2022-09-15T21:08:11.717Z,10.82
2022-09-15T21:13:13.172Z,10.83
2022-09-15T21:18:14.632Z,10.90
2022-09-15T21:23:16.356Z,11.00
2022-09-15T21:28:17.812Z,10.97
2022-09-15T21:33:20.875Z,10.98
2022-09-15T21:38:22.363Z,10.87
2022-09-15T21:43:23.838Z,10.76
2022-09-15T21:48:27.152Z,10.70
2022-09-15T21:53:29.267Z,10.69
2022-09-15T21:58:42.400Z,10.70
2022-09-15T22:03:49.495Z,10.71
2022-09-15T22:08:51.013Z,10.62
2022-09-15T22:13:52.731Z,10.55
2022-09-15T22:18:55.574Z,10.48
2022-09-15T22:23:59.431Z,10.53
2022-09-15T22:29:01.971Z,10.57
2022-09-15T22:34:04.245Z,10.48
2022-09-15T22:39:06.322Z,10.46
2022-09-15T22:44:17.825Z,10.40
2022-09-15T22:49:19.755Z,10.31
2022-09-15T22:54:21.276Z,10.34
2022-09-15T22:59:22.863Z,10.27
2022-09-15T23:04:24.423Z,10.24
2022-09-15T23:09:26.334Z,10.24
2022-09-15T23:14:27.824Z,10.20
2022-09-15T23:19:29.291Z,10.09
2022-09-15T23:24:32.796Z,10.07
2022-09-15T23:29:34.261Z,10.02
2022-09-15T23:34:35.812Z,9.98
2022-09-15T23:39:37.256Z,9.90
2022-09-15T23:44:38.731Z,9.83
2022-09-15T23:49:40.271Z,9.80
2022-09-15T23:54:41.851Z,9.79
2022-09-15T23:59:43.328Z,9.77
